sensor_id;sensor_type;location;lat;lon;timestamp;pressure;altitude;pressure_sealevel;temperature;humidity
19108;BME280;9686;48.832;9.126;2023-03-01T00:01:11;98939.88;;;2.60;nan
19108;BME280;9686;48.832;9.126;2023-03-01T00:03:38;98935.59;;;2.61;nan
19108;BME280;9686;48.832;9.126;2023-03-01T00:06:04;98935.50;;;2.59;nan
19108;BME280;9686;48.832;9.126;2023-03-01T00:08:31;98943.69;;;2.71;nan
19108;BME280;9686;48.832;9.126;2023-03-01T00:13:27;98941.56;;;2.37;nan
19108;BME280;9686;48.832;9.126;2023-03-01T00:15:53;98931.06;;;2.33;nan
19108;BME280;9686;48.832;9.126;2023-03-01T00:18:18;98933.47;;;2.28;nan
19108;BME280;9686;48.832;9.126;2023-03-01T00:20:51;98934.78;;;2.17;nan
19108;BME280;9686;48.832;9.126;2023-03-01T00:23:18;98938.16;;;2.16;nan
19108;BME280;9686;48.832;9.126;2023-03-01T00:25:43;98936.59;;;2.42;nan
19108;BME280;9686;48.832;9.126;2023-03-01T00:28:09;98943.06;;;2.32;nan
19108;BME280;9686;48.832;9.126;2023-03-01T00:30:35;98942.25;;;2.33;nan
19108;BME280;9686;48.832;9.126;2023-03-01T00:33:01;98932.53;;;2.26;nan
19108;BME280;9686;48.832;9.126;2023-03-01T00:35:26;98934.59;;;2.12;nan
19108;BME280;9686;48.832;9.126;2023-03-01T00:37:52;98932.91;;;2.35;nan
19108;BME280;9686;48.832;9.126;2023-03-01T00:40:24;98942.00;;;2.27;nan
19108;BME280;9686;48.832;9.126;2023-03-01T00:42:50;98933.91;;;2.39;nan
19108;BME280;9686;48.832;9.126;2023-03-01T00:45:15;98942.50;;;2.17;nan
19108;BME280;9686;48.832;9.126;2023-03-01T00:47:41;98938.13;;;2.14;nan
19108;BME280;9686;48.832;9.126;2023-03-01T00:50:07;98927.13;;;2.19;nan
19108;BME280;9686;48.832;9.126;2023-03-01T00:52:33;98933.84;;;2.15;nan
19108;BME280;9686;48.832;9.126;2023-03-01T00:54:58;98936.41;;;2.15;nan
19108;BME280;9686;48.832;9.126;2023-03-01T00:57:23;98937.47;;;2.20;nan
19108;BME280;9686;48.832;9.126;2023-03-01T00:59:49;98927.06;;;2.39;nan
19108;BME280;9686;48.832;9.126;2023-03-01T01:02:14;98935.34;;;2.32;nan
19108;BME280;9686;48.832;9.126;2023-03-01T01:04:40;98943.78;;;2.51;nan
19108;BME280;9686;48.832;9.126;2023-03-01T01:07:05;98947.09;;;2.26;nan
19108;BME280;9686;48.832;9.126;2023-03-01T01:09:31;98938.78;;;2.33;nan
19108;BME280;9686;48.832;9.126;2023-03-01T01:11:56;98933.91;;;2.16;nan
19108;BME280;9686;48.832;9.126;2023-03-01T01:14:21;98933.41;;;2.04;nan
19108;BME280;9686;48.832;9.126;2023-03-01T01:16:47;98939.91;;;2.17;nan
19108;BME280;9686;48.832;9.126;2023-03-01T01:19:12;98934.06;;;2.21;nan
19108;BME280;9686;48.832;9.126;2023-03-01T01:21:38;98927.44;;;2.05;nan
19108;BME280;9686;48.832;9.126;2023-03-01T01:24:04;98929.50;;;1.92;nan
19108;BME280;9686;48.832;9.126;2023-03-01T01:26:32;98926.63;;;2.06;nan
19108;BME280;9686;48.832;9.126;2023-03-01T01:28:59;98931.28;;;2.15;nan
19108;BME280;9686;48.832;9.126;2023-03-01T01:31:25;98920.41;;;2.22;nan
19108;BME280;9686;48.832;9.126;2023-03-01T01:33:52;98920.03;;;1.91;nan
19108;BME280;9686;48.832;9.126;2023-03-01T01:36:18;98910.22;;;2.03;nan
19108;BME280;9686;48.832;9.126;2023-03-01T01:38:46;98909.09;;;1.96;nan
19108;BME280;9686;48.832;9.126;2023-03-01T01:41:13;98900.97;;;1.85;nan
19108;BME280;9686;48.832;9.126;2023-03-01T01:46:31;98898.47;;;1.87;nan
19108;BME280;9686;48.832;9.126;2023-03-01T01:49:35;98898.94;;;1.99;nan
19108;BME280;9686;48.832;9.126;2023-03-01T01:57:09;98889.81;;;2.07;nan
19108;BME280;9686;48.832;9.126;2023-03-01T01:59:38;98888.75;;;2.02;nan
19108;BME280;9686;48.832;9.126;2023-03-01T02:02:05;98892.75;;;2.16;nan
19108;BME280;9686;48.832;9.126;2023-03-01T02:04:31;98882.75;;;2.02;nan
19108;BME280;9686;48.832;9.126;2023-03-01T02:07:02;98884.66;;;2.07;nan
19108;BME280;9686;48.832;9.126;2023-03-01T02:09:33;98888.47;;;1.95;nan
19108;BME280;9686;48.832;9.126;2023-03-01T02:12:03;98875.56;;;1.93;nan
19108;BME280;9686;48.832;9.126;2023-03-01T02:14:29;98876.56;;;1.97;nan
19108;BME280;9686;48.832;9.126;2023-03-01T02:16:55;98875.34;;;1.87;nan
19108;BME280;9686;48.832;9.126;2023-03-01T02:20:00;98878.78;;;1.88;nan
19108;BME280;9686;48.832;9.126;2023-03-01T02:22:33;98871.41;;;1.97;nan
19108;BME280;9686;48.832;9.126;2023-03-01T02:30:28;98852.91;;;1.83;nan
19108;BME280;9686;48.832;9.126;2023-03-01T02:32:55;98847.06;;;1.87;nan
19108;BME280;9686;48.832;9.126;2023-03-01T02:35:29;98848.34;;;1.98;nan
19108;BME280;9686;48.832;9.126;2023-03-01T02:37:57;98847.19;;;1.90;nan
19108;BME280;9686;48.832;9.126;2023-03-01T02:40:29;98851.63;;;1.94;nan
19108;BME280;9686;48.832;9.126;2023-03-01T02:42:58;98844.00;;;1.97;nan
19108;BME280;9686;48.832;9.126;2023-03-01T02:45:25;98841.72;;;2.05;nan
19108;BME280;9686;48.832;9.126;2023-03-01T02:47:54;98838.75;;;2.16;nan
19108;BME280;9686;48.832;9.126;2023-03-01T02:55:24;98836.94;;;2.14;nan
19108;BME280;9686;48.832;9.126;2023-03-01T02:57:49;98830.31;;;2.21;nan
19108;BME280;9686;48.832;9.126;2023-03-01T03:00:21;98825.22;;;2.22;nan
19108;BME280;9686;48.832;9.126;2023-03-01T03:02:53;98824.47;;;2.25;nan
19108;BME280;9686;48.832;9.126;2023-03-01T03:05:22;98823.16;;;2.12;nan
19108;BME280;9686;48.832;9.126;2023-03-01T03:07:48;98828.69;;;2.00;nan
19108;BME280;9686;48.832;9.126;2023-03-01T03:10:26;98827.31;;;2.32;nan
19108;BME280;9686;48.832;9.126;2023-03-01T03:12:58;98817.63;;;2.25;nan
19108;BME280;9686;48.832;9.126;2023-03-01T03:15:24;98810.63;;;2.21;nan
19108;BME280;9686;48.832;9.126;2023-03-01T03:17:51;98817.06;;;2.34;nan
19108;BME280;9686;48.832;9.126;2023-03-01T03:20:20;98813.34;;;2.26;nan
19108;BME280;9686;48.832;9.126;2023-03-01T03:22:48;98809.19;;;2.29;nan
19108;BME280;9686;48.832;9.126;2023-03-01T03:25:16;98804.75;;;2.25;nan
19108;BME280;9686;48.832;9.126;2023-03-01T03:27:43;98802.31;;;2.28;nan
19108;BME280;9686;48.832;9.126;2023-03-01T03:30:15;98809.44;;;2.35;nan
19108;BME280;9686;48.832;9.126;2023-03-01T03:32:42;98810.56;;;2.43;nan
19108;BME280;9686;48.832;9.126;2023-03-01T03:35:17;98806.03;;;2.36;nan
19108;BME280;9686;48.832;9.126;2023-03-01T03:37:43;98803.47;;;2.36;nan
19108;BME280;9686;48.832;9.126;2023-03-01T03:40:28;98799.56;;;2.47;nan
19108;BME280;9686;48.832;9.126;2023-03-01T03:42:54;98804.66;;;2.46;nan
19108;BME280;9686;48.832;9.126;2023-03-01T03:45:20;98811.63;;;2.48;nan
19108;BME280;9686;48.832;9.126;2023-03-01T03:47:46;98805.53;;;2.46;nan
19108;BME280;9686;48.832;9.126;2023-03-01T03:50:16;98811.06;;;2.57;nan
19108;BME280;9686;48.832;9.126;2023-03-01T03:52:42;98801.16;;;2.44;nan
19108;BME280;9686;48.832;9.126;2023-03-01T03:55:09;98799.78;;;2.54;nan
19108;BME280;9686;48.832;9.126;2023-03-01T03:57:45;98787.63;;;2.50;nan
19108;BME280;9686;48.832;9.126;2023-03-01T04:00:18;98787.94;;;2.59;nan
19108;BME280;9686;48.832;9.126;2023-03-01T04:02:45;98792.69;;;2.46;nan
19108;BME280;9686;48.832;9.126;2023-03-01T04:05:12;98789.97;;;2.67;nan
19108;BME280;9686;48.832;9.126;2023-03-01T04:07:41;98782.97;;;2.63;nan
19108;BME280;9686;48.832;9.126;2023-03-01T04:10:10;98781.28;;;2.64;nan
19108;BME280;9686;48.832;9.126;2023-03-01T04:12:36;98774.09;;;2.81;nan
19108;BME280;9686;48.832;9.126;2023-03-01T04:15:07;98772.16;;;2.73;nan
19108;BME280;9686;48.832;9.126;2023-03-01T04:17:46;98776.03;;;2.61;nan
19108;BME280;9686;48.832;9.126;2023-03-01T04:20:15;98769.00;;;2.82;nan
19108;BME280;9686;48.832;9.126;2023-03-01T04:22:43;98765.72;;;2.86;nan
19108;BME280;9686;48.832;9.126;2023-03-01T05:25:07;98743.53;;;3.44;nan
19108;BME280;9686;48.832;9.126;2023-03-01T05:30:56;98755.81;;;3.52;nan
19108;BME280;9686;48.832;9.126;2023-03-01T05:34:05;98757.44;;;3.49;nan
19108;BME280;9686;48.832;9.126;2023-03-01T05:37:20;98744.72;;;3.55;nan
19108;BME280;9686;48.832;9.126;2023-03-01T05:40:32;98756.50;;;3.47;nan
19108;BME280;9686;48.832;9.126;2023-03-01T05:47:11;98759.50;;;3.60;nan
19108;BME280;9686;48.832;9.126;2023-03-01T06:55:27;98749.25;;;3.35;nan
19108;BME280;9686;48.832;9.126;2023-03-01T07:01:27;98749.25;;;3.35;nan
19108;BME280;9686;48.832;9.126;2023-03-01T07:32:37;98733.66;;;3.87;nan
19108;BME280;9686;48.832;9.126;2023-03-01T07:37:48;98724.03;;;3.82;nan
19108;BME280;9686;48.832;9.126;2023-03-01T07:40:33;98713.16;;;3.92;nan
19108;BME280;9686;48.832;9.126;2023-03-01T07:43:14;98712.53;;;4.00;nan
19108;BME280;9686;48.832;9.126;2023-03-01T08:19:32;98701.78;;;4.48;nan
19108;BME280;9686;48.832;9.126;2023-03-01T08:22:37;98694.28;;;4.57;nan
19108;BME280;9686;48.832;9.126;2023-03-01T10:26:58;98579.78;;;7.39;nan
19108;BME280;9686;48.832;9.126;2023-03-01T10:32:52;98579.13;;;7.55;nan
19108;BME280;9686;48.832;9.126;2023-03-01T10:35:22;98569.69;;;7.62;nan
19108;BME280;9686;48.832;9.126;2023-03-01T10:38:17;98567.94;;;7.59;nan
19108;BME280;9686;48.832;9.126;2023-03-01T10:40:54;98562.78;;;7.62;nan
19108;BME280;9686;48.832;9.126;2023-03-01T10:43:24;98564.63;;;7.74;nan
19108;BME280;9686;48.832;9.126;2023-03-01T10:45:50;98561.47;;;8.04;nan
19108;BME280;9686;48.832;9.126;2023-03-01T10:48:23;98551.88;;;7.95;nan
19108;BME280;9686;48.832;9.126;2023-03-01T10:56:08;98554.44;;;7.94;nan
19108;BME280;9686;48.832;9.126;2023-03-01T10:59:02;98553.84;;;8.21;nan
19108;BME280;9686;48.832;9.126;2023-03-01T11:01:32;98542.59;;;8.20;nan
19108;BME280;9686;48.832;9.126;2023-03-01T11:04:12;98534.16;;;8.46;nan
19108;BME280;9686;48.832;9.126;2023-03-01T11:06:42;98531.75;;;8.72;nan
19108;BME280;9686;48.832;9.126;2023-03-01T11:09:22;98525.81;;;8.89;nan
19108;BME280;9686;48.832;9.126;2023-03-01T11:11:56;98512.00;;;9.07;nan
19108;BME280;9686;48.832;9.126;2023-03-01T11:14:35;98512.00;;;9.06;nan
19108;BME280;9686;48.832;9.126;2023-03-01T11:17:05;98512.00;;;9.09;nan
19108;BME280;9686;48.832;9.126;2023-03-01T11:19:39;98510.38;;;9.26;nan
19108;BME280;9686;48.832;9.126;2023-03-01T11:22:13;98503.34;;;9.10;nan
19108;BME280;9686;48.832;9.126;2023-03-01T11:24:46;98505.16;;;9.27;nan
19108;BME280;9686;48.832;9.126;2023-03-01T11:27:32;98498.31;;;9.51;nan
19108;BME280;9686;48.832;9.126;2023-03-01T11:30:13;98495.69;;;9.45;nan
19108;BME280;9686;48.832;9.126;2023-03-01T11:32:56;98485.31;;;9.60;nan
19108;BME280;9686;48.832;9.126;2023-03-01T11:35:26;98486.25;;;9.96;nan
19108;BME280;9686;48.832;9.126;2023-03-01T11:38:20;98474.09;;;9.95;nan
19108;BME280;9686;48.832;9.126;2023-03-01T11:41:00;98471.50;;;10.07;nan
19108;BME280;9686;48.832;9.126;2023-03-01T11:43:57;98466.31;;;10.16;nan
19108;BME280;9686;48.832;9.126;2023-03-01T11:52:54;98459.34;;;10.50;nan
19108;BME280;9686;48.832;9.126;2023-03-01T12:00:41;98437.34;;;12.44;nan
19108;BME280;9686;48.832;9.126;2023-03-01T12:06:25;98418.47;;;14.17;nan
19108;BME280;9686;48.832;9.126;2023-03-01T12:17:35;98408.72;;;15.18;nan
19108;BME280;9686;48.832;9.126;2023-03-01T12:20:19;98389.75;;;15.43;nan
19108;BME280;9686;48.832;9.126;2023-03-01T12:25:39;98388.69;;;16.25;nan
19108;BME280;9686;48.832;9.126;2023-03-01T12:31:29;98379.81;;;15.95;nan
19108;BME280;9686;48.832;9.126;2023-03-01T12:42:17;98367.56;;;14.29;nan
19108;BME280;9686;48.832;9.126;2023-03-01T12:50:55;98362.63;;;12.24;nan
19108;BME280;9686;48.832;9.126;2023-03-01T12:53:29;98356.94;;;11.80;nan
19108;BME280;9686;48.832;9.126;2023-03-01T12:56:00;98348.47;;;11.47;nan
19108;BME280;9686;48.832;9.126;2023-03-01T12:58:33;98347.63;;;11.40;nan
19108;BME280;9686;48.832;9.126;2023-03-01T13:04:04;98335.63;;;11.20;nan
19108;BME280;9686;48.832;9.126;2023-03-01T13:06:57;98330.25;;;11.39;nan
19108;BME280;9686;48.832;9.126;2023-03-01T13:09:54;98326.94;;;11.13;nan
19108;BME280;9686;48.832;9.126;2023-03-01T13:15:36;98324.38;;;11.07;nan
19108;BME280;9686;48.832;9.126;2023-03-01T13:20:48;98326.16;;;11.03;nan
19108;BME280;9686;48.832;9.126;2023-03-01T13:28:49;98322.72;;;10.98;nan
19108;BME280;9686;48.832;9.126;2023-03-01T13:34:48;98323.41;;;11.25;nan
19108;BME280;9686;48.832;9.126;2023-03-01T13:37:21;98320.06;;;11.01;nan
19108;BME280;9686;48.832;9.126;2023-03-01T13:39:47;98325.16;;;11.23;nan
19108;BME280;9686;48.832;9.126;2023-03-01T13:42:33;98322.63;;;11.09;nan
19108;BME280;9686;48.832;9.126;2023-03-01T13:45:00;98316.56;;;11.05;nan
19108;BME280;9686;48.832;9.126;2023-03-01T13:47:26;98325.16;;;11.23;nan
19108;BME280;9686;48.832;9.126;2023-03-01T13:50:03;98321.81;;;11.01;nan
19108;BME280;9686;48.832;9.126;2023-03-01T13:54:59;98317.34;;;11.23;nan
19108;BME280;9686;48.832;9.126;2023-03-01T13:57:32;98313.72;;;11.37;nan
19108;BME280;9686;48.832;9.126;2023-03-01T13:59:58;98314.59;;;11.38;nan
19108;BME280;9686;48.832;9.126;2023-03-01T14:02:24;98309.28;;;11.53;nan
19108;BME280;9686;48.832;9.126;2023-03-01T14:04:58;98316.25;;;11.53;nan
19108;BME280;9686;48.832;9.126;2023-03-01T14:07:24;98307.59;;;11.46;nan
19108;BME280;9686;48.832;9.126;2023-03-01T14:10:04;98303.34;;;11.33;nan
19108;BME280;9686;48.832;9.126;2023-03-01T14:12:41;98309.41;;;11.33;nan
19108;BME280;9686;48.832;9.126;2023-03-01T14:15:22;98293.88;;;11.20;nan
19108;BME280;9686;48.832;9.126;2023-03-01T14:18:04;98306.06;;;11.19;nan
19108;BME280;9686;48.832;9.126;2023-03-01T14:20:38;98301.88;;;10.91;nan
19108;BME280;9686;48.832;9.126;2023-03-01T14:23:11;98297.44;;;11.03;nan
19108;BME280;9686;48.832;9.126;2023-03-01T14:25:37;98309.66;;;11.00;nan
19108;BME280;9686;48.832;9.126;2023-03-01T14:30:37;98308.66;;;11.21;nan
19108;BME280;9686;48.832;9.126;2023-03-01T14:33:06;98322.34;;;11.52;nan
19108;BME280;9686;48.832;9.126;2023-03-01T14:35:52;98323.34;;;11.31;nan
19108;BME280;9686;48.832;9.126;2023-03-01T14:38:23;98325.06;;;11.35;nan
19108;BME280;9686;48.832;9.126;2023-03-01T14:40:56;98327.78;;;11.18;nan
19108;BME280;9686;48.832;9.126;2023-03-01T14:43:23;98333.78;;;11.31;nan
19108;BME280;9686;48.832;9.126;2023-03-01T14:45:51;98338.94;;;11.41;nan
19108;BME280;9686;48.832;9.126;2023-03-01T14:48:20;98327.81;;;11.15;nan
19108;BME280;9686;48.832;9.126;2023-03-01T14:50:47;98326.22;;;10.94;nan
19108;BME280;9686;48.832;9.126;2023-03-01T14:53:24;98325.28;;;11.03;nan
19108;BME280;9686;48.832;9.126;2023-03-01T14:55:54;98340.06;;;11.02;nan
19108;BME280;9686;48.832;9.126;2023-03-01T14:58:22;98332.13;;;11.22;nan
19108;BME280;9686;48.832;9.126;2023-03-01T15:01:01;98335.53;;;11.32;nan
19108;BME280;9686;48.832;9.126;2023-03-01T15:06:52;98328.59;;;11.29;nan
19108;BME280;9686;48.832;9.126;2023-03-01T15:09:36;98324.44;;;11.01;nan
19108;BME280;9686;48.832;9.126;2023-03-01T15:14:54;98332.72;;;11.59;nan
19108;BME280;9686;48.832;9.126;2023-03-01T15:19:58;98332.78;;;11.52;nan
19108;BME280;9686;48.832;9.126;2023-03-01T15:22:26;98327.81;;;11.12;nan
19108;BME280;9686;48.832;9.126;2023-03-01T15:24:52;98332.97;;;11.24;nan
19108;BME280;9686;48.832;9.126;2023-03-01T15:27:21;98332.88;;;11.38;nan
19108;BME280;9686;48.832;9.126;2023-03-01T15:29:57;98333.09;;;11.06;nan
19108;BME280;9686;48.832;9.126;2023-03-01T15:32:31;98320.09;;;11.00;nan
19108;BME280;9686;48.832;9.126;2023-03-01T15:38:18;98317.38;;;11.15;nan
19108;BME280;9686;48.832;9.126;2023-03-01T15:40:58;98321.94;;;10.81;nan
19108;BME280;9686;48.832;9.126;2023-03-01T15:43:44;98324.22;;;11.33;nan
19108;BME280;9686;48.832;9.126;2023-03-01T15:46:36;98315.00;;;11.95;nan
19108;BME280;9686;48.832;9.126;2023-03-01T15:51:54;98309.03;;;13.80;nan
19108;BME280;9686;48.832;9.126;2023-03-01T15:54:25;98322.09;;;13.26;nan
19108;BME280;9686;48.832;9.126;2023-03-01T15:56:54;98311.00;;;12.43;nan
19108;BME280;9686;48.832;9.126;2023-03-01T15:59:25;98305.53;;;12.63;nan
19108;BME280;9686;48.832;9.126;2023-03-01T16:01:51;98303.59;;;12.03;nan
19108;BME280;9686;48.832;9.126;2023-03-01T16:04:21;98303.41;;;11.25;nan
19108;BME280;9686;48.832;9.126;2023-03-01T16:07:09;98300.88;;;11.10;nan
19108;BME280;9686;48.832;9.126;2023-03-01T16:09:35;98298.19;;;11.25;nan
19108;BME280;9686;48.832;9.126;2023-03-01T16:12:00;98299.28;;;10.94;nan
19108;BME280;9686;48.832;9.126;2023-03-01T16:14:27;98293.06;;;11.07;nan
19108;BME280;9686;48.832;9.126;2023-03-01T16:16:53;98299.97;;;11.14;nan
19108;BME280;9686;48.832;9.126;2023-03-01T16:19:19;98294.16;;;10.75;nan
19108;BME280;9686;48.832;9.126;2023-03-01T16:24:55;98297.72;;;10.56;nan
19108;BME280;9686;48.832;9.126;2023-03-01T17:03:22;98323.09;;;9.31;nan
19108;BME280;9686;48.832;9.126;2023-03-01T17:21:59;98353.31;;;8.77;nan
19108;BME280;9686;48.832;9.126;2023-03-01T17:25:54;98354.16;;;8.77;nan
19108;BME280;9686;48.832;9.126;2023-03-01T19:13:48;98346.25;;;7.25;nan
19108;BME280;9686;48.832;9.126;2023-03-01T19:16:18;98347.19;;;7.30;nan
19108;BME280;9686;48.832;9.126;2023-03-01T19:18:46;98347.06;;;7.21;nan
19108;BME280;9686;48.832;9.126;2023-03-01T19:21:39;98335.88;;;7.25;nan
19108;BME280;9686;48.832;9.126;2023-03-01T19:24:05;98334.25;;;7.36;nan
19108;BME280;9686;48.832;9.126;2023-03-01T19:26:31;98335.88;;;7.27;nan
19108;BME280;9686;48.832;9.126;2023-03-01T19:29:00;98336.63;;;7.10;nan
19108;BME280;9686;48.832;9.126;2023-03-01T19:35:06;98335.59;;;6.95;nan
19108;BME280;9686;48.832;9.126;2023-03-01T19:37:33;98333.03;;;6.98;nan
19108;BME280;9686;48.832;9.126;2023-03-01T19:43:05;98334.56;;;7.74;nan
19108;BME280;9686;48.832;9.126;2023-03-01T19:45:31;98336.22;;;7.63;nan
19108;BME280;9686;48.832;9.126;2023-03-01T19:48:23;98327.50;;;7.55;nan
19108;BME280;9686;48.832;9.126;2023-03-01T19:50:55;98336.06;;;7.45;nan
19108;BME280;9686;48.832;9.126;2023-03-01T19:53:27;98336.22;;;7.65;nan
19108;BME280;9686;48.832;9.126;2023-03-01T19:55:56;98332.69;;;7.55;nan
19108;BME280;9686;48.832;9.126;2023-03-01T19:58:22;98329.91;;;7.34;nan
19108;BME280;9686;48.832;9.126;2023-03-01T20:01:26;98336.00;;;7.37;nan
19108;BME280;9686;48.832;9.126;2023-03-01T20:03:57;98332.56;;;7.38;nan
19108;BME280;9686;48.832;9.126;2023-03-01T20:06:22;98333.56;;;7.57;nan
19108;BME280;9686;48.832;9.126;2023-03-01T20:08:50;98336.09;;;7.51;nan
19108;BME280;9686;48.832;9.126;2023-03-01T20:11:16;98341.38;;;7.60;nan
19108;BME280;9686;48.832;9.126;2023-03-01T20:13:51;98343.00;;;7.51;nan
19108;BME280;9686;48.832;9.126;2023-03-01T20:16:18;98348.19;;;7.51;nan
19108;BME280;9686;48.832;9.126;2023-03-01T20:18:52;98350.03;;;7.61;nan
19108;BME280;9686;48.832;9.126;2023-03-01T20:21:25;98351.63;;;7.47;nan
19108;BME280;9686;48.832;9.126;2023-03-01T20:23:51;98352.63;;;7.59;nan
19108;BME280;9686;48.832;9.126;2023-03-01T20:26:34;98354.41;;;7.68;nan
19108;BME280;9686;48.832;9.126;2023-03-01T20:32:36;98355.19;;;7.55;nan
19108;BME280;9686;48.832;9.126;2023-03-01T20:35:01;98351.75;;;7.60;nan
19108;BME280;9686;48.832;9.126;2023-03-01T20:37:27;98355.13;;;7.53;nan
19108;BME280;9686;48.832;9.126;2023-03-01T20:39:53;98348.91;;;7.31;nan
19108;BME280;9686;48.832;9.126;2023-03-01T20:42:19;98348.16;;;7.46;nan
19108;BME280;9686;48.832;9.126;2023-03-01T20:44:44;98348.06;;;7.34;nan
19108;BME280;9686;48.832;9.126;2023-03-01T20:47:10;98344.47;;;7.20;nan
19108;BME280;9686;48.832;9.126;2023-03-01T20:49:36;98336.69;;;7.18;nan
19108;BME280;9686;48.832;9.126;2023-03-01T20:52:01;98340.13;;;7.16;nan
19108;BME280;9686;48.832;9.126;2023-03-01T20:54:26;98335.66;;;7.02;nan
19108;BME280;9686;48.832;9.126;2023-03-01T20:56:52;98337.41;;;7.03;nan
19108;BME280;9686;48.832;9.126;2023-03-01T20:59:18;98338.81;;;6.74;nan
19108;BME280;9686;48.832;9.126;2023-03-01T21:01:43;98333.72;;;6.80;nan
19108;BME280;9686;48.832;9.126;2023-03-01T21:04:09;98330.94;;;6.65;nan
19108;BME280;9686;48.832;9.126;2023-03-01T21:06:35;98336.13;;;6.65;nan
19108;BME280;9686;48.832;9.126;2023-03-01T21:09:00;98337.78;;;6.58;nan
19108;BME280;9686;48.832;9.126;2023-03-01T21:11:26;98345.34;;;6.43;nan
19108;BME280;9686;48.832;9.126;2023-03-01T21:13:52;98331.59;;;6.48;nan
19108;BME280;9686;48.832;9.126;2023-03-01T21:16:19;98340.00;;;6.28;nan
19108;BME280;9686;48.832;9.126;2023-03-01T21:18:45;98334.00;;;6.30;nan
19108;BME280;9686;48.832;9.126;2023-03-01T21:21:13;98336.63;;;6.33;nan
19108;BME280;9686;48.832;9.126;2023-03-01T21:23:40;98333.97;;;6.29;nan
19108;BME280;9686;48.832;9.126;2023-03-01T21:26:16;98337.47;;;6.32;nan
19108;BME280;9686;48.832;9.126;2023-03-01T21:28:46;98331.53;;;6.41;nan
19108;BME280;9686;48.832;9.126;2023-03-01T21:31:14;98334.09;;;6.39;nan
19108;BME280;9686;48.832;9.126;2023-03-01T21:33:44;98327.41;;;5.92;nan
19108;BME280;9686;48.832;9.126;2023-03-01T21:36:10;98330.56;;;6.33;nan
19108;BME280;9686;48.832;9.126;2023-03-01T21:38:38;98321.88;;;6.28;nan
19108;BME280;9686;48.832;9.126;2023-03-01T21:41:10;98324.31;;;6.18;nan
19108;BME280;9686;48.832;9.126;2023-03-01T21:43:37;98324.22;;;6.09;nan
19108;BME280;9686;48.832;9.126;2023-03-01T21:46:04;98319.88;;;6.07;nan
19108;BME280;9686;48.832;9.126;2023-03-01T21:48:31;98318.06;;;6.00;nan
19108;BME280;9686;48.832;9.126;2023-03-01T21:50:59;98318.00;;;5.97;nan
19108;BME280;9686;48.832;9.126;2023-03-01T21:53:29;98314.50;;;5.93;nan
19108;BME280;9686;48.832;9.126;2023-03-01T21:55:55;98307.78;;;6.06;nan
19108;BME280;9686;48.832;9.126;2023-03-01T21:58:21;98313.66;;;5.94;nan
19108;BME280;9686;48.832;9.126;2023-03-01T22:00:46;98307.50;;;5.89;nan
19108;BME280;9686;48.832;9.126;2023-03-01T22:03:12;98300.47;;;5.79;nan
19108;BME280;9686;48.832;9.126;2023-03-01T22:05:38;98302.03;;;5.69;nan
19108;BME280;9686;48.832;9.126;2023-03-01T22:08:04;98302.94;;;5.71;nan
19108;BME280;9686;48.832;9.126;2023-03-01T22:10:30;98301.00;;;5.56;nan
19108;BME280;9686;48.832;9.126;2023-03-01T22:12:57;98302.72;;;5.56;nan
19108;BME280;9686;48.832;9.126;2023-03-01T22:15:24;98303.22;;;5.34;nan
19108;BME280;9686;48.832;9.126;2023-03-01T22:18:00;98300.69;;;5.37;nan
19108;BME280;9686;48.832;9.126;2023-03-01T22:20:25;98307.41;;;5.24;nan
19108;BME280;9686;48.832;9.126;2023-03-01T22:22:50;98312.34;;;5.12;nan
19108;BME280;9686;48.832;9.126;2023-03-01T22:25:16;98308.06;;;5.14;nan
19108;BME280;9686;48.832;9.126;2023-03-01T22:27:41;98309.09;;;5.22;nan
19108;BME280;9686;48.832;9.126;2023-03-01T22:30:08;98309.97;;;5.22;nan
19108;BME280;9686;48.832;9.126;2023-03-01T22:32:35;98306.13;;;5.01;nan
19108;BME280;9686;48.832;9.126;2023-03-01T22:35:00;98311.66;;;5.20;nan
19108;BME280;9686;48.832;9.126;2023-03-01T22:37:26;98319.13;;;5.05;nan
19108;BME280;9686;48.832;9.126;2023-03-01T22:39:51;98313.16;;;5.09;nan
19108;BME280;9686;48.832;9.126;2023-03-01T22:42:17;98316.66;;;5.13;nan
19108;BME280;9686;48.832;9.126;2023-03-01T22:44:43;98313.66;;;4.90;nan
19108;BME280;9686;48.832;9.126;2023-03-01T22:47:08;98308.22;;;4.73;nan
19108;BME280;9686;48.832;9.126;2023-03-01T22:49:34;98301.44;;;4.78;nan
19108;BME280;9686;48.832;9.126;2023-03-01T22:51:59;98307.31;;;4.71;nan
19108;BME280;9686;48.832;9.126;2023-03-01T22:54:25;98304.41;;;4.54;nan
19108;BME280;9686;48.832;9.126;2023-03-01T22:56:50;98301.50;;;4.38;nan
19108;BME280;9686;48.832;9.126;2023-03-01T22:59:18;98307.38;;;4.30;nan
19108;BME280;9686;48.832;9.126;2023-03-01T23:01:47;98300.75;;;4.90;nan
19108;BME280;9686;48.832;9.126;2023-03-01T23:04:13;98310.00;;;4.77;nan
19108;BME280;9686;48.832;9.126;2023-03-01T23:06:38;98302.44;;;4.86;nan
19108;BME280;9686;48.832;9.126;2023-03-01T23:09:15;98306.53;;;4.75;nan
19108;BME280;9686;48.832;9.126;2023-03-01T23:11:41;98302.38;;;4.83;nan
19108;BME280;9686;48.832;9.126;2023-03-01T23:14:07;98289.53;;;4.88;nan
19108;BME280;9686;48.832;9.126;2023-03-01T23:16:32;98292.16;;;4.89;nan
19108;BME280;9686;48.832;9.126;2023-03-01T23:18:57;98287.09;;;4.95;nan
19108;BME280;9686;48.832;9.126;2023-03-01T23:21:23;98292.03;;;4.82;nan
19108;BME280;9686;48.832;9.126;2023-03-01T23:23:49;98290.28;;;4.81;nan
19108;BME280;9686;48.832;9.126;2023-03-01T23:26:15;98291.00;;;4.72;nan
19108;BME280;9686;48.832;9.126;2023-03-01T23:28:42;98292.69;;;4.70;nan
19108;BME280;9686;48.832;9.126;2023-03-01T23:31:10;98291.19;;;4.84;nan
19108;BME280;9686;48.832;9.126;2023-03-01T23:33:37;98290.56;;;4.96;nan
19108;BME280;9686;48.832;9.126;2023-03-01T23:36:19;98291.66;;;4.63;nan
19108;BME280;9686;48.832;9.126;2023-03-01T23:38:47;98285.41;;;4.49;nan
19108;BME280;9686;48.832;9.126;2023-03-01T23:41:14;98287.19;;;4.53;nan
19108;BME280;9686;48.832;9.126;2023-03-01T23:43:43;98281.69;;;4.37;nan
19108;BME280;9686;48.832;9.126;2023-03-01T23:46:08;98285.91;;;4.31;nan
19108;BME280;9686;48.832;9.126;2023-03-01T23:48:38;98281.75;;;4.40;nan
19108;BME280;9686;48.832;9.126;2023-03-01T23:51:04;98286.94;;;4.41;nan
19108;BME280;9686;48.832;9.126;2023-03-01T23:53:30;98283.38;;;4.34;nan
19108;BME280;9686;48.832;9.126;2023-03-01T23:55:55;98289.50;;;4.40;nan
19108;BME280;9686;48.832;9.126;2023-03-01T23:58:20;98280.53;;;4.21;nan
